sensor_id;sensor_type;location;lat;lon;timestamp;P1;durP1;ratioP1;P2;durP2;ratioP2
7971;SDS011;4031;49.758;6.120;2023-12-20T00:01:35;1.67;;;1.50;;
7971;SDS011;4031;49.758;6.120;2023-12-20T00:04:02;1.50;;;1.23;;
7971;SDS011;4031;49.758;6.120;2023-12-20T00:06:29;2.00;;;1.70;;
7971;SDS011;4031;49.758;6.120;2023-12-20T00:08:55;1.80;;;1.27;;
7971;SDS011;4031;49.758;6.120;2023-12-20T00:11:23;1.37;;;1.20;;
7971;SDS011;4031;49.758;6.120;2023-12-20T00:13:49;1.40;;;0.90;;
7971;SDS011;4031;49.758;6.120;2023-12-20T00:16:15;0.80;;;0.80;;
7971;SDS011;4031;49.758;6.120;2023-12-20T00:18:40;2.13;;;0.80;;
7971;SDS011;4031;49.758;6.120;2023-12-20T00:21:06;1.03;;;0.93;;
7971;SDS011;4031;49.758;6.120;2023-12-20T00:23:32;1.97;;;1.50;;
7971;SDS011;4031;49.758;6.120;2023-12-20T00:25:58;1.33;;;1.23;;
7971;SDS011;4031;49.758;6.120;2023-12-20T00:28:23;1.33;;;1.20;;
7971;SDS011;4031;49.758;6.120;2023-12-20T00:30:49;1.30;;;1.20;;
7971;SDS011;4031;49.758;6.120;2023-12-20T00:33:15;1.30;;;1.20;;
7971;SDS011;4031;49.758;6.120;2023-12-20T00:35:40;0.93;;;0.90;;
7971;SDS011;4031;49.758;6.120;2023-12-20T00:38:06;1.20;;;1.10;;
7971;SDS011;4031;49.758;6.120;2023-12-20T00:40:33;1.10;;;1.00;;
7971;SDS011;4031;49.758;6.120;2023-12-20T00:42:59;1.33;;;1.23;;
7971;SDS011;4031;49.758;6.120;2023-12-20T00:45:25;3.30;;;1.40;;
7971;SDS011;4031;49.758;6.120;2023-12-20T00:47:51;1.10;;;1.10;;
7971;SDS011;4031;49.758;6.120;2023-12-20T00:50:16;1.90;;;1.77;;
7971;SDS011;4031;49.758;6.120;2023-12-20T00:52:42;1.40;;;1.30;;
7971;SDS011;4031;49.758;6.120;2023-12-20T00:55:08;1.40;;;1.30;;
7971;SDS011;4031;49.758;6.120;2023-12-20T00:57:34;1.57;;;1.47;;
7971;SDS011;4031;49.758;6.120;2023-12-20T00:59:59;0.97;;;0.97;;
7971;SDS011;4031;49.758;6.120;2023-12-20T01:02:25;1.77;;;0.93;;
7971;SDS011;4031;49.758;6.120;2023-12-20T01:04:51;1.40;;;1.30;;
7971;SDS011;4031;49.758;6.120;2023-12-20T01:07:17;2.10;;;1.63;;
7971;SDS011;4031;49.758;6.120;2023-12-20T01:09:43;1.20;;;1.10;;
7971;SDS011;4031;49.758;6.120;2023-12-20T01:12:08;1.27;;;1.17;;
7971;SDS011;4031;49.758;6.120;2023-12-20T01:14:35;1.40;;;0.90;;
7971;SDS011;4031;49.758;6.120;2023-12-20T01:17:01;1.43;;;1.20;;
7971;SDS011;4031;49.758;6.120;2023-12-20T01:19:27;1.47;;;1.20;;
7971;SDS011;4031;49.758;6.120;2023-12-20T01:21:54;1.60;;;0.93;;
7971;SDS011;4031;49.758;6.120;2023-12-20T01:24:20;1.50;;;1.40;;
7971;SDS011;4031;49.758;6.120;2023-12-20T01:26:46;2.00;;;1.80;;
7971;SDS011;4031;49.758;6.120;2023-12-20T01:29:12;1.60;;;1.50;;
7971;SDS011;4031;49.758;6.120;2023-12-20T01:31:39;1.80;;;1.70;;
7971;SDS011;4031;49.758;6.120;2023-12-20T01:34:05;2.00;;;1.90;;
7971;SDS011;4031;49.758;6.120;2023-12-20T01:36:33;1.53;;;1.43;;
7971;SDS011;4031;49.758;6.120;2023-12-20T01:38:59;1.50;;;1.40;;
7971;SDS011;4031;49.758;6.120;2023-12-20T01:41:25;1.80;;;1.40;;
7971;SDS011;4031;49.758;6.120;2023-12-20T01:43:50;1.50;;;1.40;;
7971;SDS011;4031;49.758;6.120;2023-12-20T01:46:18;2.10;;;1.40;;
7971;SDS011;4031;49.758;6.120;2023-12-20T01:48:45;3.00;;;2.00;;
7971;SDS011;4031;49.758;6.120;2023-12-20T01:51:12;2.10;;;1.90;;
7971;SDS011;4031;49.758;6.120;2023-12-20T01:53:39;1.73;;;1.63;;
7971;SDS011;4031;49.758;6.120;2023-12-20T01:56:05;2.30;;;1.60;;
7971;SDS011;4031;49.758;6.120;2023-12-20T01:58:32;3.00;;;1.90;;
7971;SDS011;4031;49.758;6.120;2023-12-20T02:00:58;2.43;;;2.27;;
7971;SDS011;4031;49.758;6.120;2023-12-20T02:03:24;3.77;;;2.53;;
7971;SDS011;4031;49.758;6.120;2023-12-20T02:05:50;2.30;;;1.90;;
7971;SDS011;4031;49.758;6.120;2023-12-20T02:08:15;4.47;;;3.67;;
7971;SDS011;4031;49.758;6.120;2023-12-20T02:10:41;2.53;;;2.27;;
7971;SDS011;4031;49.758;6.120;2023-12-20T02:13:07;3.07;;;2.43;;
7971;SDS011;4031;49.758;6.120;2023-12-20T02:15:33;3.83;;;3.43;;
7971;SDS011;4031;49.758;6.120;2023-12-20T02:18:01;4.27;;;3.70;;
7971;SDS011;4031;49.758;6.120;2023-12-20T02:20:28;5.67;;;3.10;;
7971;SDS011;4031;49.758;6.120;2023-12-20T02:22:53;4.90;;;3.03;;
7971;SDS011;4031;49.758;6.120;2023-12-20T02:25:19;3.43;;;2.23;;
7971;SDS011;4031;49.758;6.120;2023-12-20T02:27:45;5.07;;;3.70;;
7971;SDS011;4031;49.758;6.120;2023-12-20T02:30:11;3.93;;;2.90;;
7971;SDS011;4031;49.758;6.120;2023-12-20T02:32:39;4.73;;;2.90;;
7971;SDS011;4031;49.758;6.120;2023-12-20T02:35:05;3.43;;;2.57;;
7971;SDS011;4031;49.758;6.120;2023-12-20T02:37:32;3.90;;;3.20;;
7971;SDS011;4031;49.758;6.120;2023-12-20T02:39:58;5.10;;;3.27;;
7971;SDS011;4031;49.758;6.120;2023-12-20T02:42:23;7.03;;;3.30;;
7971;SDS011;4031;49.758;6.120;2023-12-20T02:44:49;7.27;;;3.87;;
7971;SDS011;4031;49.758;6.120;2023-12-20T02:47:15;10.27;;;4.70;;
7971;SDS011;4031;49.758;6.120;2023-12-20T02:49:41;5.23;;;3.90;;
7971;SDS011;4031;49.758;6.120;2023-12-20T02:52:06;5.37;;;3.57;;
7971;SDS011;4031;49.758;6.120;2023-12-20T02:54:32;5.53;;;2.60;;
7971;SDS011;4031;49.758;6.120;2023-12-20T02:56:58;1.53;;;1.40;;
7971;SDS011;4031;49.758;6.120;2023-12-20T02:59:23;3.03;;;2.70;;
7971;SDS011;4031;49.758;6.120;2023-12-20T03:01:49;4.57;;;2.57;;
7971;SDS011;4031;49.758;6.120;2023-12-20T03:04:15;2.67;;;2.47;;
7971;SDS011;4031;49.758;6.120;2023-12-20T03:06:41;6.40;;;2.90;;
7971;SDS011;4031;49.758;6.120;2023-12-20T03:09:06;5.97;;;2.47;;
7971;SDS011;4031;49.758;6.120;2023-12-20T03:11:33;4.43;;;2.43;;
7971;SDS011;4031;49.758;6.120;2023-12-20T03:13:58;6.90;;;2.40;;
7971;SDS011;4031;49.758;6.120;2023-12-20T03:16:24;6.20;;;2.87;;
7971;SDS011;4031;49.758;6.120;2023-12-20T03:18:50;6.97;;;2.67;;
7971;SDS011;4031;49.758;6.120;2023-12-20T03:21:16;4.67;;;2.30;;
7971;SDS011;4031;49.758;6.120;2023-12-20T03:23:42;4.00;;;2.23;;
7971;SDS011;4031;49.758;6.120;2023-12-20T03:26:09;2.77;;;2.40;;
7971;SDS011;4031;49.758;6.120;2023-12-20T03:28:38;6.53;;;2.27;;
7971;SDS011;4031;49.758;6.120;2023-12-20T03:31:04;3.43;;;2.80;;
7971;SDS011;4031;49.758;6.120;2023-12-20T03:33:29;5.17;;;2.30;;
7971;SDS011;4031;49.758;6.120;2023-12-20T03:35:55;5.60;;;2.80;;
7971;SDS011;4031;49.758;6.120;2023-12-20T03:38:21;3.67;;;2.53;;
7971;SDS011;4031;49.758;6.120;2023-12-20T03:40:49;13.00;;;3.23;;
7971;SDS011;4031;49.758;6.120;2023-12-20T03:43:15;5.57;;;2.57;;
7971;SDS011;4031;49.758;6.120;2023-12-20T03:45:41;5.43;;;3.63;;
7971;SDS011;4031;49.758;6.120;2023-12-20T03:48:07;4.97;;;2.77;;
7971;SDS011;4031;49.758;6.120;2023-12-20T03:50:33;9.60;;;2.90;;
7971;SDS011;4031;49.758;6.120;2023-12-20T03:53:00;4.10;;;2.83;;
7971;SDS011;4031;49.758;6.120;2023-12-20T03:55:26;2.83;;;2.63;;
7971;SDS011;4031;49.758;6.120;2023-12-20T03:57:52;10.80;;;3.03;;
7971;SDS011;4031;49.758;6.120;2023-12-20T04:00:17;3.43;;;2.40;;
7971;SDS011;4031;49.758;6.120;2023-12-20T04:02:43;5.07;;;3.57;;
7971;SDS011;4031;49.758;6.120;2023-12-20T04:05:09;4.33;;;2.50;;
7971;SDS011;4031;49.758;6.120;2023-12-20T04:07:36;4.30;;;2.40;;
7971;SDS011;4031;49.758;6.120;2023-12-20T04:10:02;4.47;;;2.60;;
7971;SDS011;4031;49.758;6.120;2023-12-20T04:12:29;4.97;;;3.30;;
7971;SDS011;4031;49.758;6.120;2023-12-20T04:14:55;3.40;;;2.33;;
7971;SDS011;4031;49.758;6.120;2023-12-20T04:17:21;4.20;;;2.70;;
7971;SDS011;4031;49.758;6.120;2023-12-20T04:19:51;4.40;;;2.50;;
7971;SDS011;4031;49.758;6.120;2023-12-20T04:22:17;2.53;;;2.30;;
7971;SDS011;4031;49.758;6.120;2023-12-20T04:24:43;3.03;;;2.30;;
7971;SDS011;4031;49.758;6.120;2023-12-20T04:27:09;3.80;;;2.30;;
7971;SDS011;4031;49.758;6.120;2023-12-20T04:29:36;3.37;;;2.53;;
7971;SDS011;4031;49.758;6.120;2023-12-20T04:32:01;6.10;;;2.77;;
7971;SDS011;4031;49.758;6.120;2023-12-20T04:34:27;12.30;;;3.30;;
7971;SDS011;4031;49.758;6.120;2023-12-20T04:36:53;6.00;;;2.90;;
7971;SDS011;4031;49.758;6.120;2023-12-20T04:39:19;5.20;;;2.60;;
7971;SDS011;4031;49.758;6.120;2023-12-20T04:41:45;6.77;;;2.53;;
7971;SDS011;4031;49.758;6.120;2023-12-20T04:44:12;6.90;;;2.47;;
7971;SDS011;4031;49.758;6.120;2023-12-20T04:46:38;6.23;;;3.20;;
7971;SDS011;4031;49.758;6.120;2023-12-20T04:49:04;8.63;;;3.00;;
7971;SDS011;4031;49.758;6.120;2023-12-20T04:51:32;14.90;;;3.90;;
7971;SDS011;4031;49.758;6.120;2023-12-20T04:53:59;5.67;;;2.67;;
7971;SDS011;4031;49.758;6.120;2023-12-20T04:56:25;11.73;;;3.57;;
7971;SDS011;4031;49.758;6.120;2023-12-20T04:58:51;9.67;;;3.40;;
7971;SDS011;4031;49.758;6.120;2023-12-20T05:01:17;7.60;;;3.00;;
7971;SDS011;4031;49.758;6.120;2023-12-20T05:03:42;7.83;;;3.40;;
7971;SDS011;4031;49.758;6.120;2023-12-20T05:06:09;7.70;;;3.60;;
7971;SDS011;4031;49.758;6.120;2023-12-20T05:08:35;5.23;;;2.60;;
7971;SDS011;4031;49.758;6.120;2023-12-20T05:11:01;4.40;;;3.37;;
7971;SDS011;4031;49.758;6.120;2023-12-20T05:13:27;6.30;;;3.50;;
7971;SDS011;4031;49.758;6.120;2023-12-20T05:15:53;9.20;;;3.80;;
7971;SDS011;4031;49.758;6.120;2023-12-20T05:18:19;7.90;;;2.93;;
7971;SDS011;4031;49.758;6.120;2023-12-20T05:20:46;17.47;;;4.13;;
7971;SDS011;4031;49.758;6.120;2023-12-20T05:23:12;8.23;;;3.50;;
7971;SDS011;4031;49.758;6.120;2023-12-20T05:25:38;8.07;;;3.50;;
7971;SDS011;4031;49.758;6.120;2023-12-20T05:28:07;9.80;;;3.90;;
7971;SDS011;4031;49.758;6.120;2023-12-20T05:30:32;11.73;;;3.37;;
7971;SDS011;4031;49.758;6.120;2023-12-20T05:32:58;8.40;;;2.80;;
7971;SDS011;4031;49.758;6.120;2023-12-20T05:35:24;6.43;;;3.23;;
7971;SDS011;4031;49.758;6.120;2023-12-20T05:37:50;9.70;;;3.40;;
7971;SDS011;4031;49.758;6.120;2023-12-20T05:40:15;4.83;;;3.23;;
7971;SDS011;4031;49.758;6.120;2023-12-20T05:42:41;10.93;;;4.20;;
7971;SDS011;4031;49.758;6.120;2023-12-20T05:45:08;5.03;;;3.23;;
7971;SDS011;4031;49.758;6.120;2023-12-20T05:47:35;11.57;;;3.60;;
7971;SDS011;4031;49.758;6.120;2023-12-20T05:50:00;5.13;;;3.23;;
7971;SDS011;4031;49.758;6.120;2023-12-20T05:52:26;9.60;;;3.90;;
7971;SDS011;4031;49.758;6.120;2023-12-20T05:54:52;8.37;;;3.37;;
7971;SDS011;4031;49.758;6.120;2023-12-20T05:57:17;25.30;;;4.67;;
7971;SDS011;4031;49.758;6.120;2023-12-20T05:59:43;10.23;;;3.67;;
7971;SDS011;4031;49.758;6.120;2023-12-20T06:02:09;6.77;;;3.73;;
7971;SDS011;4031;49.758;6.120;2023-12-20T06:04:34;10.23;;;3.90;;
7971;SDS011;4031;49.758;6.120;2023-12-20T06:07:00;9.30;;;4.60;;
7971;SDS011;4031;49.758;6.120;2023-12-20T06:09:29;9.83;;;4.37;;
7971;SDS011;4031;49.758;6.120;2023-12-20T06:11:55;6.87;;;3.93;;
7971;SDS011;4031;49.758;6.120;2023-12-20T06:14:20;9.37;;;4.10;;
7971;SDS011;4031;49.758;6.120;2023-12-20T06:16:46;13.63;;;4.10;;
7971;SDS011;4031;49.758;6.120;2023-12-20T06:19:12;11.87;;;3.67;;
7971;SDS011;4031;49.758;6.120;2023-12-20T06:21:37;6.63;;;3.40;;
7971;SDS011;4031;49.758;6.120;2023-12-20T06:24:03;3.70;;;3.00;;
7971;SDS011;4031;49.758;6.120;2023-12-20T06:26:29;5.70;;;4.30;;
7971;SDS011;4031;49.758;6.120;2023-12-20T06:28:55;6.30;;;3.40;;
7971;SDS011;4031;49.758;6.120;2023-12-20T06:31:21;7.70;;;3.20;;
7971;SDS011;4031;49.758;6.120;2023-12-20T06:33:47;9.30;;;3.80;;
7971;SDS011;4031;49.758;6.120;2023-12-20T06:36:14;5.73;;;2.77;;
7971;SDS011;4031;49.758;6.120;2023-12-20T06:38:40;6.77;;;2.97;;
7971;SDS011;4031;49.758;6.120;2023-12-20T06:41:07;10.87;;;3.70;;
7971;SDS011;4031;49.758;6.120;2023-12-20T06:43:32;8.23;;;3.20;;
7971;SDS011;4031;49.758;6.120;2023-12-20T06:46:00;7.13;;;3.30;;
7971;SDS011;4031;49.758;6.120;2023-12-20T06:48:26;6.67;;;3.60;;
7971;SDS011;4031;49.758;6.120;2023-12-20T06:50:52;5.77;;;2.83;;
7971;SDS011;4031;49.758;6.120;2023-12-20T06:53:18;10.67;;;3.30;;
7971;SDS011;4031;49.758;6.120;2023-12-20T06:55:44;9.00;;;3.00;;
7971;SDS011;4031;49.758;6.120;2023-12-20T06:58:09;9.20;;;3.40;;
7971;SDS011;4031;49.758;6.120;2023-12-20T07:00:35;7.03;;;3.20;;
7971;SDS011;4031;49.758;6.120;2023-12-20T07:03:01;6.10;;;3.20;;
7971;SDS011;4031;49.758;6.120;2023-12-20T07:05:26;6.10;;;3.70;;
7971;SDS011;4031;49.758;6.120;2023-12-20T07:07:52;9.70;;;4.27;;
7971;SDS011;4031;49.758;6.120;2023-12-20T07:10:18;6.40;;;4.30;;
7971;SDS011;4031;49.758;6.120;2023-12-20T07:12:44;11.23;;;3.57;;
7971;SDS011;4031;49.758;6.120;2023-12-20T07:15:10;8.57;;;3.40;;
7971;SDS011;4031;49.758;6.120;2023-12-20T07:17:36;14.27;;;4.80;;
7971;SDS011;4031;49.758;6.120;2023-12-20T07:20:02;8.13;;;3.50;;
7971;SDS011;4031;49.758;6.120;2023-12-20T07:22:32;6.50;;;2.97;;
7971;SDS011;4031;49.758;6.120;2023-12-20T07:24:58;9.40;;;4.13;;
7971;SDS011;4031;49.758;6.120;2023-12-20T07:27:25;5.67;;;3.40;;
7971;SDS011;4031;49.758;6.120;2023-12-20T07:29:51;7.50;;;3.90;;
7971;SDS011;4031;49.758;6.120;2023-12-20T07:32:17;7.77;;;3.77;;
7971;SDS011;4031;49.758;6.120;2023-12-20T07:34:43;8.47;;;3.57;;
7971;SDS011;4031;49.758;6.120;2023-12-20T07:37:09;14.07;;;4.30;;
7971;SDS011;4031;49.758;6.120;2023-12-20T07:39:39;12.37;;;3.80;;
7971;SDS011;4031;49.758;6.120;2023-12-20T07:42:06;17.57;;;4.90;;
7971;SDS011;4031;49.758;6.120;2023-12-20T07:44:34;7.03;;;4.20;;
7971;SDS011;4031;49.758;6.120;2023-12-20T07:47:01;11.67;;;3.63;;
7971;SDS011;4031;49.758;6.120;2023-12-20T07:49:27;8.87;;;3.77;;
7971;SDS011;4031;49.758;6.120;2023-12-20T07:51:53;4.67;;;4.20;;
7971;SDS011;4031;49.758;6.120;2023-12-20T07:54:18;6.27;;;4.27;;
7971;SDS011;4031;49.758;6.120;2023-12-20T07:56:46;14.90;;;4.77;;
7971;SDS011;4031;49.758;6.120;2023-12-20T07:59:12;11.00;;;4.70;;
7971;SDS011;4031;49.758;6.120;2023-12-20T08:01:38;6.20;;;4.00;;
7971;SDS011;4031;49.758;6.120;2023-12-20T08:04:03;6.93;;;4.70;;
7971;SDS011;4031;49.758;6.120;2023-12-20T08:06:29;14.40;;;4.70;;
7971;SDS011;4031;49.758;6.120;2023-12-20T08:08:55;10.00;;;5.03;;
7971;SDS011;4031;49.758;6.120;2023-12-20T08:11:20;12.60;;;5.20;;
7971;SDS011;4031;49.758;6.120;2023-12-20T08:13:46;7.93;;;5.93;;
7971;SDS011;4031;49.758;6.120;2023-12-20T08:16:12;7.90;;;5.00;;
7971;SDS011;4031;49.758;6.120;2023-12-20T08:18:40;7.03;;;4.37;;
7971;SDS011;4031;49.758;6.120;2023-12-20T08:21:06;17.43;;;5.40;;
7971;SDS011;4031;49.758;6.120;2023-12-20T08:23:33;9.17;;;5.67;;
7971;SDS011;4031;49.758;6.120;2023-12-20T08:26:03;10.30;;;6.40;;
7971;SDS011;4031;49.758;6.120;2023-12-20T08:28:33;9.17;;;5.67;;
7971;SDS011;4031;49.758;6.120;2023-12-20T08:30:59;9.73;;;4.37;;
7971;SDS011;4031;49.758;6.120;2023-12-20T08:33:25;9.63;;;5.87;;
7971;SDS011;4031;49.758;6.120;2023-12-20T08:35:51;10.13;;;4.67;;
7971;SDS011;4031;49.758;6.120;2023-12-20T08:38:17;11.20;;;5.47;;
7971;SDS011;4031;49.758;6.120;2023-12-20T08:40:43;11.57;;;5.40;;
7971;SDS011;4031;49.758;6.120;2023-12-20T08:43:09;6.93;;;6.23;;
7971;SDS011;4031;49.758;6.120;2023-12-20T08:45:35;10.10;;;5.73;;
7971;SDS011;4031;49.758;6.120;2023-12-20T08:48:01;8.50;;;3.83;;
7971;SDS011;4031;49.758;6.120;2023-12-20T08:50:28;13.20;;;4.70;;
7971;SDS011;4031;49.758;6.120;2023-12-20T08:52:54;8.37;;;4.90;;
7971;SDS011;4031;49.758;6.120;2023-12-20T08:55:20;8.10;;;5.50;;
7971;SDS011;4031;49.758;6.120;2023-12-20T08:57:45;9.77;;;4.33;;
7971;SDS011;4031;49.758;6.120;2023-12-20T09:00:11;10.40;;;5.00;;
7971;SDS011;4031;49.758;6.120;2023-12-20T09:02:38;7.47;;;4.90;;
7971;SDS011;4031;49.758;6.120;2023-12-20T09:05:04;7.80;;;5.00;;
7971;SDS011;4031;49.758;6.120;2023-12-20T09:07:30;9.93;;;4.43;;
7971;SDS011;4031;49.758;6.120;2023-12-20T09:09:56;7.60;;;4.43;;
7971;SDS011;4031;49.758;6.120;2023-12-20T09:12:22;8.20;;;5.00;;
7971;SDS011;4031;49.758;6.120;2023-12-20T09:14:49;9.70;;;4.47;;
7971;SDS011;4031;49.758;6.120;2023-12-20T09:17:16;6.90;;;4.00;;
7971;SDS011;4031;49.758;6.120;2023-12-20T09:19:43;6.93;;;4.70;;
7971;SDS011;4031;49.758;6.120;2023-12-20T09:22:09;9.43;;;3.93;;
7971;SDS011;4031;49.758;6.120;2023-12-20T09:24:35;5.47;;;3.40;;
7971;SDS011;4031;49.758;6.120;2023-12-20T09:27:01;5.67;;;3.80;;
7971;SDS011;4031;49.758;6.120;2023-12-20T09:29:27;8.13;;;3.10;;
7971;SDS011;4031;49.758;6.120;2023-12-20T09:31:54;6.43;;;3.20;;
7971;SDS011;4031;49.758;6.120;2023-12-20T09:34:20;5.63;;;2.70;;
7971;SDS011;4031;49.758;6.120;2023-12-20T09:36:46;6.23;;;3.13;;
7971;SDS011;4031;49.758;6.120;2023-12-20T09:39:16;7.03;;;3.17;;
7971;SDS011;4031;49.758;6.120;2023-12-20T09:41:47;7.37;;;4.03;;
7971;SDS011;4031;49.758;6.120;2023-12-20T09:44:31;4.13;;;2.43;;
7971;SDS011;4031;49.758;6.120;2023-12-20T09:46:59;9.43;;;2.90;;
7971;SDS011;4031;49.758;6.120;2023-12-20T09:49:30;8.20;;;3.00;;
7971;SDS011;4031;49.758;6.120;2023-12-20T09:51:57;6.20;;;2.90;;
7971;SDS011;4031;49.758;6.120;2023-12-20T09:54:26;6.13;;;2.60;;
7971;SDS011;4031;49.758;6.120;2023-12-20T09:56:53;4.40;;;2.60;;
7971;SDS011;4031;49.758;6.120;2023-12-20T09:59:19;8.10;;;2.77;;
7971;SDS011;4031;49.758;6.120;2023-12-20T10:01:45;6.20;;;3.33;;
7971;SDS011;4031;49.758;6.120;2023-12-20T10:04:12;9.17;;;4.07;;
7971;SDS011;4031;49.758;6.120;2023-12-20T10:06:41;6.53;;;2.53;;
7971;SDS011;4031;49.758;6.120;2023-12-20T10:09:11;2.13;;;1.90;;
7971;SDS011;4031;49.758;6.120;2023-12-20T10:11:37;4.83;;;2.90;;
7971;SDS011;4031;49.758;6.120;2023-12-20T10:14:04;5.07;;;2.50;;
7971;SDS011;4031;49.758;6.120;2023-12-20T10:16:33;3.60;;;2.73;;
7971;SDS011;4031;49.758;6.120;2023-12-20T10:18:59;5.27;;;3.50;;
7971;SDS011;4031;49.758;6.120;2023-12-20T10:21:29;14.23;;;2.97;;
7971;SDS011;4031;49.758;6.120;2023-12-20T10:23:55;6.70;;;2.93;;
7971;SDS011;4031;49.758;6.120;2023-12-20T10:26:23;2.83;;;2.30;;
7971;SDS011;4031;49.758;6.120;2023-12-20T10:29:10;3.33;;;2.23;;
7971;SDS011;4031;49.758;6.120;2023-12-20T10:31:36;3.10;;;2.50;;
7971;SDS011;4031;49.758;6.120;2023-12-20T10:34:03;2.83;;;2.47;;
7971;SDS011;4031;49.758;6.120;2023-12-20T10:36:30;5.07;;;2.60;;
7971;SDS011;4031;49.758;6.120;2023-12-20T10:38:58;5.40;;;2.73;;
7971;SDS011;4031;49.758;6.120;2023-12-20T10:41:25;7.50;;;2.90;;
7971;SDS011;4031;49.758;6.120;2023-12-20T10:44:00;4.50;;;2.90;;
7971;SDS011;4031;49.758;6.120;2023-12-20T10:46:28;11.40;;;3.00;;
7971;SDS011;4031;49.758;6.120;2023-12-20T10:48:58;11.03;;;3.17;;
7971;SDS011;4031;49.758;6.120;2023-12-20T10:51:27;6.90;;;3.83;;
7971;SDS011;4031;49.758;6.120;2023-12-20T10:53:55;5.70;;;3.00;;
7971;SDS011;4031;49.758;6.120;2023-12-20T10:56:21;9.20;;;3.30;;
7971;SDS011;4031;49.758;6.120;2023-12-20T10:58:49;6.40;;;2.60;;
7971;SDS011;4031;49.758;6.120;2023-12-20T11:01:18;8.70;;;3.60;;
7971;SDS011;4031;49.758;6.120;2023-12-20T11:03:50;5.70;;;2.87;;
7971;SDS011;4031;49.758;6.120;2023-12-20T11:06:33;8.67;;;2.40;;
7971;SDS011;4031;49.758;6.120;2023-12-20T11:15:14;8.83;;;2.67;;
7971;SDS011;4031;49.758;6.120;2023-12-20T11:17:41;4.87;;;3.00;;
7971;SDS011;4031;49.758;6.120;2023-12-20T11:20:11;5.93;;;2.67;;
7971;SDS011;4031;49.758;6.120;2023-12-20T11:22:39;7.23;;;2.10;;
7971;SDS011;4031;49.758;6.120;2023-12-20T11:25:17;5.40;;;2.43;;
7971;SDS011;4031;49.758;6.120;2023-12-20T11:27:42;3.00;;;2.10;;
7971;SDS011;4031;49.758;6.120;2023-12-20T11:30:09;2.87;;;2.27;;
7971;SDS011;4031;49.758;6.120;2023-12-20T11:32:35;5.80;;;1.97;;
7971;SDS011;4031;49.758;6.120;2023-12-20T11:37:37;5.63;;;2.53;;
7971;SDS011;4031;49.758;6.120;2023-12-20T11:40:08;3.83;;;2.30;;
7971;SDS011;4031;49.758;6.120;2023-12-20T11:42:42;4.60;;;2.07;;
7971;SDS011;4031;49.758;6.120;2023-12-20T11:45:15;10.57;;;2.73;;
7971;SDS011;4031;49.758;6.120;2023-12-20T11:47:47;8.97;;;2.83;;
7971;SDS011;4031;49.758;6.120;2023-12-20T11:50:19;7.40;;;3.23;;
7971;SDS011;4031;49.758;6.120;2023-12-20T11:52:47;4.13;;;2.87;;
7971;SDS011;4031;49.758;6.120;2023-12-20T11:55:13;5.60;;;2.60;;
7971;SDS011;4031;49.758;6.120;2023-12-20T11:57:39;7.00;;;2.37;;
7971;SDS011;4031;49.758;6.120;2023-12-20T12:00:07;4.00;;;2.40;;
7971;SDS011;4031;49.758;6.120;2023-12-20T12:02:33;11.47;;;3.53;;
7971;SDS011;4031;49.758;6.120;2023-12-20T12:04:59;6.33;;;2.60;;
7971;SDS011;4031;49.758;6.120;2023-12-20T12:07:25;5.50;;;2.80;;
7971;SDS011;4031;49.758;6.120;2023-12-20T12:09:51;4.40;;;2.87;;
7971;SDS011;4031;49.758;6.120;2023-12-20T12:12:17;10.20;;;2.77;;
7971;SDS011;4031;49.758;6.120;2023-12-20T12:14:44;1.50;;;1.40;;
7971;SDS011;4031;49.758;6.120;2023-12-20T12:17:14;3.80;;;2.33;;
7971;SDS011;4031;49.758;6.120;2023-12-20T12:19:40;5.50;;;2.80;;
7971;SDS011;4031;49.758;6.120;2023-12-20T12:22:07;4.20;;;2.63;;
7971;SDS011;4031;49.758;6.120;2023-12-20T12:24:42;4.97;;;2.60;;
7971;SDS011;4031;49.758;6.120;2023-12-20T12:27:09;5.70;;;3.10;;
7971;SDS011;4031;49.758;6.120;2023-12-20T12:29:36;5.33;;;2.87;;
7971;SDS011;4031;49.758;6.120;2023-12-20T12:32:05;5.93;;;2.73;;
7971;SDS011;4031;49.758;6.120;2023-12-20T12:34:33;4.77;;;3.13;;
7971;SDS011;4031;49.758;6.120;2023-12-20T12:36:59;8.17;;;3.33;;
7971;SDS011;4031;49.758;6.120;2023-12-20T12:39:26;4.57;;;3.20;;
7971;SDS011;4031;49.758;6.120;2023-12-20T12:41:52;5.23;;;3.17;;
7971;SDS011;4031;49.758;6.120;2023-12-20T12:44:18;9.33;;;3.07;;
7971;SDS011;4031;49.758;6.120;2023-12-20T12:46:48;9.93;;;3.40;;
7971;SDS011;4031;49.758;6.120;2023-12-20T12:49:16;7.20;;;2.73;;
7971;SDS011;4031;49.758;6.120;2023-12-20T12:51:42;8.80;;;3.20;;
7971;SDS011;4031;49.758;6.120;2023-12-20T12:54:09;5.90;;;2.90;;
7971;SDS011;4031;49.758;6.120;2023-12-20T12:56:35;8.87;;;3.00;;
7971;SDS011;4031;49.758;6.120;2023-12-20T12:59:01;5.07;;;2.77;;
7971;SDS011;4031;49.758;6.120;2023-12-20T13:01:27;6.80;;;2.50;;
7971;SDS011;4031;49.758;6.120;2023-12-20T13:03:53;4.27;;;2.40;;
7971;SDS011;4031;49.758;6.120;2023-12-20T13:06:19;4.13;;;2.20;;
7971;SDS011;4031;49.758;6.120;2023-12-20T13:08:45;3.40;;;2.07;;
7971;SDS011;4031;49.758;6.120;2023-12-20T13:11:11;8.80;;;3.30;;
7971;SDS011;4031;49.758;6.120;2023-12-20T13:13:37;4.40;;;2.50;;
7971;SDS011;4031;49.758;6.120;2023-12-20T13:16:02;8.63;;;3.60;;
7971;SDS011;4031;49.758;6.120;2023-12-20T13:18:29;6.13;;;2.40;;
7971;SDS011;4031;49.758;6.120;2023-12-20T13:20:54;5.20;;;2.80;;
7971;SDS011;4031;49.758;6.120;2023-12-20T13:23:20;9.33;;;3.30;;
7971;SDS011;4031;49.758;6.120;2023-12-20T13:25:46;13.57;;;3.07;;
7971;SDS011;4031;49.758;6.120;2023-12-20T13:28:12;7.30;;;3.27;;
7971;SDS011;4031;49.758;6.120;2023-12-20T13:30:38;9.53;;;3.33;;
7971;SDS011;4031;49.758;6.120;2023-12-20T13:33:04;6.83;;;3.37;;
7971;SDS011;4031;49.758;6.120;2023-12-20T13:35:30;6.50;;;3.30;;
7971;SDS011;4031;49.758;6.120;2023-12-20T13:37:57;7.17;;;3.13;;
7971;SDS011;4031;49.758;6.120;2023-12-20T13:40:24;4.83;;;3.07;;
7971;SDS011;4031;49.758;6.120;2023-12-20T13:42:49;6.23;;;2.70;;
7971;SDS011;4031;49.758;6.120;2023-12-20T13:45:15;7.20;;;3.37;;
7971;SDS011;4031;49.758;6.120;2023-12-20T13:47:41;4.47;;;2.30;;
7971;SDS011;4031;49.758;6.120;2023-12-20T13:50:07;3.60;;;2.30;;
7971;SDS011;4031;49.758;6.120;2023-12-20T13:52:34;3.97;;;2.90;;
7971;SDS011;4031;49.758;6.120;2023-12-20T13:55:00;8.00;;;2.57;;
7971;SDS011;4031;49.758;6.120;2023-12-20T13:57:27;5.00;;;3.00;;
7971;SDS011;4031;49.758;6.120;2023-12-20T13:59:54;10.47;;;3.23;;
7971;SDS011;4031;49.758;6.120;2023-12-20T14:02:22;7.50;;;3.10;;
7971;SDS011;4031;49.758;6.120;2023-12-20T14:04:48;6.07;;;2.87;;
7971;SDS011;4031;49.758;6.120;2023-12-20T14:07:14;4.90;;;2.30;;
7971;SDS011;4031;49.758;6.120;2023-12-20T14:09:40;12.43;;;2.80;;
7971;SDS011;4031;49.758;6.120;2023-12-20T14:12:10;7.27;;;3.00;;
7971;SDS011;4031;49.758;6.120;2023-12-20T14:14:37;5.70;;;2.90;;
7971;SDS011;4031;49.758;6.120;2023-12-20T14:17:03;3.20;;;2.90;;
7971;SDS011;4031;49.758;6.120;2023-12-20T14:19:29;3.40;;;2.40;;
7971;SDS011;4031;49.758;6.120;2023-12-20T14:21:55;4.13;;;2.40;;
7971;SDS011;4031;49.758;6.120;2023-12-20T14:24:21;2.93;;;1.73;;
7971;SDS011;4031;49.758;6.120;2023-12-20T14:26:47;11.27;;;3.00;;
7971;SDS011;4031;49.758;6.120;2023-12-20T14:29:12;6.63;;;3.23;;
7971;SDS011;4031;49.758;6.120;2023-12-20T14:31:38;5.47;;;2.50;;
7971;SDS011;4031;49.758;6.120;2023-12-20T14:34:05;8.63;;;3.30;;
7971;SDS011;4031;49.758;6.120;2023-12-20T14:36:31;11.70;;;3.33;;
7971;SDS011;4031;49.758;6.120;2023-12-20T14:38:57;4.47;;;2.90;;
7971;SDS011;4031;49.758;6.120;2023-12-20T14:41:23;8.23;;;2.40;;
7971;SDS011;4031;49.758;6.120;2023-12-20T14:43:50;5.17;;;2.73;;
7971;SDS011;4031;49.758;6.120;2023-12-20T14:46:19;5.33;;;2.77;;
7971;SDS011;4031;49.758;6.120;2023-12-20T14:48:45;4.30;;;2.63;;
7971;SDS011;4031;49.758;6.120;2023-12-20T14:51:11;7.43;;;2.70;;
7971;SDS011;4031;49.758;6.120;2023-12-20T14:53:38;9.13;;;2.43;;
7971;SDS011;4031;49.758;6.120;2023-12-20T14:56:04;5.73;;;2.40;;
7971;SDS011;4031;49.758;6.120;2023-12-20T14:58:30;10.10;;;3.50;;
7971;SDS011;4031;49.758;6.120;2023-12-20T15:00:56;7.47;;;2.30;;
7971;SDS011;4031;49.758;6.120;2023-12-20T15:03:23;9.70;;;1.97;;
7971;SDS011;4031;49.758;6.120;2023-12-20T15:05:49;5.40;;;1.90;;
7971;SDS011;4031;49.758;6.120;2023-12-20T15:08:15;2.77;;;1.40;;
7971;SDS011;4031;49.758;6.120;2023-12-20T15:10:41;4.77;;;2.40;;
7971;SDS011;4031;49.758;6.120;2023-12-20T15:13:06;6.67;;;2.10;;
7971;SDS011;4031;49.758;6.120;2023-12-20T15:15:32;12.20;;;3.07;;
7971;SDS011;4031;49.758;6.120;2023-12-20T15:17:58;2.93;;;2.47;;